Time;durP1;ratioP1;P1;durP2;ratioP2;P2;SDS_P1;SDS_P2;PMS_P1;PMS_P2;Temp;Humidity;BMP_temperature;BMP_pressure;BME280_temperature;BME280_humidity;BME280_pressure;Samples;Min_cycle;Max_cycle;Signal;HPM_P1;HPM_P2
2023/10/12 00:00:48;;;;;;;8.60;7.90;;;18.60;20.70;;;;;;6218153;23;20476;-79
2023/10/12 00:03:16;;;;;;;8.60;7.70;;;18.60;20.70;;;;;;6217423;23;20465;-79
2023/10/12 00:05:45;;;;;;;10.70;8.10;;;18.60;20.70;;;;;;6191549;23;20410;-79
2023/10/12 00:08:25;;;;;;;8.67;7.77;;;18.60;20.70;;;;;;6217184;23;20716;-80
2023/10/12 00:10:54;;;;;;;10.17;8.40;;;18.60;20.70;;;;;;6191478;23;20415;-79
2023/10/12 00:13:20;;;;;;;8.43;7.73;;;18.50;20.70;;;;;;6217003;23;20391;-79
2023/10/12 00:15:47;;;;;;;8.70;8.00;;;18.50;20.70;;;;;;6217167;23;20371;-80
2023/10/12 00:18:16;;;;;;;10.20;9.03;;;18.50;20.80;;;;;;6217168;23;20466;-79
2023/10/12 00:20:44;;;;;;;9.90;7.77;;;18.40;21.00;;;;;;6217141;23;20402;-80
2023/10/12 00:23:10;;;;;;;9.13;8.53;;;18.40;21.00;;;;;;6215604;23;20872;-79
2023/10/12 00:25:54;;;;;;;8.70;7.90;;;18.40;21.10;;;;;;6189515;23;20386;-79
2023/10/12 00:28:21;;;;;;;8.93;8.23;;;18.30;21.10;;;;;;6216967;23;20212;-80
2023/10/12 00:30:57;;;;;;;9.53;8.57;;;18.30;21.40;;;;;;6216356;23;20406;-79
2023/10/12 00:33:24;;;;;;;8.97;8.07;;;18.30;21.70;;;;;;6189889;23;20549;-79
2023/10/12 00:36:04;;;;;;;10.13;9.17;;;18.30;21.60;;;;;;6216359;23;20372;-79
2023/10/12 00:38:30;;;;;;;8.53;7.93;;;18.20;21.60;;;;;;6215854;23;20398;-79
2023/10/12 00:40:57;;;;;;;9.27;8.37;;;18.20;21.60;;;;;;6189232;23;20727;-79
2023/10/12 00:43:38;;;;;;;8.67;7.97;;;18.20;21.70;;;;;;6189671;23;20457;-79
2023/10/12 00:46:21;;;;;;;10.63;7.57;;;18.20;21.80;;;;;;6216275;23;20356;-79
2023/10/12 00:48:49;;;;;;;8.87;8.13;;;18.20;21.80;;;;;;6215884;23;20359;-79
2023/10/12 00:51:18;;;;;;;8.97;8.20;;;18.20;21.70;;;;;;6215692;23;20415;-79
2023/10/12 00:53:55;;;;;;;9.23;8.33;;;18.20;21.90;;;;;;6216640;23;20509;-79
2023/10/12 00:56:28;;;;;;;9.07;8.30;;;18.10;21.90;;;;;;6189693;23;20840;-79
2023/10/12 00:58:55;;;;;;;8.97;8.37;;;18.10;22.10;;;;;;6215835;23;20691;-79
2023/10/12 01:01:23;;;;;;;9.00;7.93;;;18.10;22.10;;;;;;6215825;23;20376;-79
2023/10/12 01:03:52;;;;;;;8.77;7.93;;;18.10;22.20;;;;;;6215716;23;20931;-79
2023/10/12 01:08:51;;;;;;;9.30;8.33;;;18.10;22.20;;;;;;6225060;23;20393;-78
2023/10/12 01:11:28;;;;;;;9.57;8.87;;;18.10;22.20;;;;;;6187125;23;20747;-78
2023/10/12 01:14:09;;;;;;;11.30;8.40;;;18.00;22.30;;;;;;6214022;23;20164;-78
2023/10/12 01:16:51;;;;;;;9.50;8.70;;;18.00;22.40;;;;;;6187393;23;20502;-78
2023/10/12 01:19:23;;;;;;;10.60;9.00;;;17.90;22.40;;;;;;6213286;23;20391;-78
2023/10/12 01:21:55;;;;;;;7.70;7.20;;;18.00;22.40;;;;;;6214545;23;20367;-78
2023/10/12 01:24:29;;;;;;;10.03;9.07;;;17.90;22.60;;;;;;6213867;23;20395;-78
2023/10/12 01:26:56;;;;;;;8.73;8.13;;;17.90;22.40;;;;;;6213237;23;20821;-78
2023/10/12 01:29:22;;;;;;;8.93;8.23;;;17.90;22.50;;;;;;6186801;23;20397;-79
2023/10/12 01:32:01;;;;;;;8.77;8.07;;;17.90;22.70;;;;;;6187777;23;20458;-78
2023/10/12 01:34:29;;;;;;;9.30;8.23;;;17.80;23.10;;;;;;6213607;23;20864;-78
2023/10/12 01:36:57;;;;;;;9.97;9.17;;;17.80;23.00;;;;;;6213905;23;20844;-78
2023/10/12 01:39:28;;;;;;;9.00;8.27;;;17.80;23.00;;;;;;6186596;23;20826;-78
2023/10/12 01:41:55;;;;;;;10.47;9.67;;;17.80;23.10;;;;;;6187342;23;20380;-78
2023/10/12 01:44:21;;;;;;;11.23;10.17;;;17.80;23.00;;;;;;6214074;23;20399;-78
2023/10/12 01:46:49;;;;;;;9.93;8.93;;;17.80;22.90;;;;;;6188259;23;20887;-78
2023/10/12 01:49:17;;;;;;;9.87;8.97;;;17.80;22.90;;;;;;6187902;23;20490;-78
2023/10/12 01:51:45;;;;;;;9.63;8.77;;;17.90;23.00;;;;;;6187056;23;20427;-78
2023/10/12 01:54:22;;;;;;;10.30;9.57;;;17.90;23.00;;;;;;6187259;23;20401;-78
2023/10/12 01:56:55;;;;;;;9.63;8.70;;;17.90;23.00;;;;;;6187809;23;20377;-78
2023/10/12 01:59:21;;;;;;;9.43;8.57;;;17.90;23.00;;;;;;6213379;23;20388;-78
2023/10/12 02:01:59;;;;;;;9.20;8.67;;;17.80;23.00;;;;;;6186840;23;20857;-78
2023/10/12 02:04:25;;;;;;;9.50;8.80;;;17.80;23.10;;;;;;6188886;23;20183;-79
2023/10/12 02:06:52;;;;;;;11.00;10.10;;;17.80;23.20;;;;;;6214950;23;20468;-79
2023/10/12 02:09:22;;;;;;;9.90;9.10;;;17.90;23.20;;;;;;6215107;23;20644;-78
2023/10/12 02:11:53;;;;;;;9.30;8.70;;;17.80;23.20;;;;;;6215106;23;20456;-79
2023/10/12 02:14:32;;;;;;;10.37;9.50;;;17.80;23.10;;;;;;6187431;23;20437;-79
2023/10/12 02:17:02;;;;;;;10.83;9.70;;;17.80;23.20;;;;;;6187473;23;20688;-78
2023/10/12 02:20:00;;;;;;;9.73;9.07;;;17.80;23.20;;;;;;6187898;23;20449;-79
2023/10/12 02:22:28;;;;;;;9.83;8.97;;;17.80;23.20;;;;;;6210948;23;20397;-79
2023/10/12 02:25:18;;;;;;;10.27;9.20;;;17.80;23.60;;;;;;6215117;23;20583;-79
2023/10/12 02:27:54;;;;;;;11.50;10.40;;;17.80;23.20;;;;;;6215873;23;20417;-79
2023/10/12 02:30:28;;;;;;;10.07;9.37;;;17.80;23.20;;;;;;6188862;23;20450;-79
2023/10/12 02:33:07;;;;;;;9.70;9.03;;;17.80;23.40;;;;;;6215291;23;20406;-78
2023/10/12 02:35:44;;;;;;;9.77;9.20;;;17.80;23.40;;;;;;6214770;23;20354;-79
2023/10/12 02:38:14;;;;;;;10.23;9.63;;;17.90;23.40;;;;;;6214404;23;20356;-79
2023/10/12 02:40:41;;;;;;;10.60;9.60;;;17.80;23.20;;;;;;6188011;23;20841;-78
2023/10/12 02:43:10;;;;;;;10.40;9.70;;;17.80;23.30;;;;;;6188766;23;20434;-79
2023/10/12 02:45:40;;;;;;;10.97;9.13;;;17.90;23.30;;;;;;6188303;23;20379;-79
2023/10/12 02:48:12;;;;;;;9.20;8.50;;;17.80;23.10;;;;;;6188084;23;20386;-79
2023/10/12 02:50:48;;;;;;;10.70;9.90;;;17.90;23.10;;;;;;6214886;23;20430;-79
2023/10/12 02:53:13;;;;;;;9.03;8.40;;;17.90;23.00;;;;;;6215582;23;20394;-79
2023/10/12 02:55:49;;;;;;;10.17;9.37;;;17.90;22.90;;;;;;6214844;23;20378;-79
2023/10/12 03:03:25;;;;;;;9.73;8.83;;;18.00;23.10;;;;;;6213911;23;20497;-79
2023/10/12 03:05:58;;;;;;;9.73;9.00;;;18.00;23.10;;;;;;6213759;23;20413;-79
2023/10/12 03:08:30;;;;;;;10.10;9.20;;;18.00;22.90;;;;;;6213551;23;20440;-79
2023/10/12 03:13:27;;;;;;;9.87;8.87;;;18.00;23.30;;;;;;6216267;23;20427;-79
2023/10/12 03:16:03;;;;;;;9.50;8.70;;;18.10;22.90;;;;;;6215073;23;20379;-79
2023/10/12 03:18:29;;;;;;;10.37;9.50;;;18.10;22.80;;;;;;6188921;23;20562;-79
2023/10/12 03:21:04;;;;;;;10.87;9.90;;;18.10;22.80;;;;;;6189859;23;20384;-79
2023/10/12 03:23:34;;;;;;;10.53;9.63;;;18.00;22.70;;;;;;6190637;23;20464;-79
2023/10/12 03:26:18;;;;;;;9.97;9.13;;;18.10;22.80;;;;;;6216224;23;20367;-79
2023/10/12 03:28:45;;;;;;;10.67;9.50;;;18.10;22.80;;;;;;6190009;23;20837;-79
2023/10/12 03:33:54;;;;;;;9.70;8.80;;;18.10;22.80;;;;;;6221417;23;20896;-78
2023/10/12 03:36:33;;;;;;;13.03;8.90;;;18.10;22.90;;;;;;6215499;23;20379;-80
2023/10/12 03:44:19;;;;;;;10.40;9.60;;;18.10;22.90;;;;;;6217539;23;20445;-78
2023/10/12 03:46:56;;;;;;;8.90;8.27;;;18.10;22.70;;;;;;6187586;23;20395;-78
2023/10/12 03:51:58;;;;;;;10.50;9.60;;;18.10;22.60;;;;;;6223673;23;20415;-78
2023/10/12 03:54:31;;;;;;;10.50;9.50;;;18.10;22.60;;;;;;6186795;23;20403;-78
2023/10/12 03:57:19;;;;;;;10.00;9.30;;;18.10;22.50;;;;;;6187050;23;20371;-78
2023/10/12 03:59:59;;;;;;;10.50;9.70;;;18.10;22.50;;;;;;6215413;23;20731;-78
2023/10/12 04:02:24;;;;;;;10.23;9.33;;;18.20;22.60;;;;;;6213643;23;20355;-78
2023/10/12 04:05:00;;;;;;;10.80;10.10;;;18.20;22.70;;;;;;6187009;23;20411;-78
2023/10/12 04:07:39;;;;;;;11.93;10.93;;;18.10;22.50;;;;;;6214191;23;20139;-78
2023/10/12 04:10:23;;;;;;;10.30;9.67;;;18.10;22.70;;;;;;6188829;23;20397;-78
2023/10/12 04:13:08;;;;;;;11.37;10.43;;;18.10;22.20;;;;;;6214599;23;20458;-79
2023/10/12 04:18:18;;;;;;;11.27;10.30;;;18.20;22.40;;;;;;6217606;23;20438;-78
2023/10/12 04:20:45;;;;;;;11.50;10.60;;;18.20;22.30;;;;;;6186650;23;20429;-78
2023/10/12 04:23:34;;;;;;;11.23;10.53;;;18.20;22.30;;;;;;6189140;23;20199;-77
2023/10/12 04:28:39;;;;;;;11.33;10.43;;;18.20;22.20;;;;;;6228335;23;20419;-78
2023/10/12 04:33:43;;;;;;;11.80;10.37;;;18.30;22.10;;;;;;6215136;23;20900;-77
2023/10/12 04:36:13;;;;;;;11.17;10.27;;;18.20;22.10;;;;;;6217501;23;20421;-79
2023/10/12 04:43:52;;;;;;;11.10;10.10;;;18.30;22.10;;;;;;6223800;23;20461;-79
2023/10/12 04:49:00;;;;;;;10.80;10.10;;;18.30;22.40;;;;;;6227508;23;20415;-80
2023/10/12 04:51:30;;;;;;;10.37;9.50;;;18.20;22.40;;;;;;6191413;23;20415;-79
2023/10/12 04:54:15;;;;;;;10.60;9.77;;;18.30;22.20;;;;;;6218729;23;20391;-79
2023/10/12 04:56:51;;;;;;;11.03;10.40;;;18.20;22.00;;;;;;6192321;23;20378;-79
2023/10/12 04:59:26;;;;;;;11.67;10.87;;;18.20;22.00;;;;;;6191166;23;20364;-79
2023/10/12 05:09:49;;;;;;;9.40;8.70;;;18.20;22.30;;;;;;6220126;23;20398;-81
2023/10/12 05:12:25;;;;;;;10.70;9.90;;;18.20;22.40;;;;;;6197115;23;20187;-80
2023/10/12 05:15:00;;;;;;;11.53;10.60;;;18.20;22.60;;;;;;6192117;23;20489;-80
2023/10/12 05:17:27;;;;;;;11.83;10.83;;;18.20;22.60;;;;;;6219668;23;20366;-79
2023/10/12 05:19:53;;;;;;;12.30;11.03;;;18.20;22.70;;;;;;6190733;23;20405;-79
2023/10/12 05:22:21;;;;;;;12.50;11.50;;;18.20;22.90;;;;;;6190657;23;20453;-78
2023/10/12 05:24:47;;;;;;;10.80;10.00;;;18.10;22.90;;;;;;6216535;23;20168;-79
2023/10/12 05:27:23;;;;;;;11.20;10.10;;;18.10;22.90;;;;;;6190193;23;20387;-79
2023/10/12 05:29:54;;;;;;;11.60;10.70;;;18.10;23.00;;;;;;6218675;23;20356;-79
2023/10/12 05:32:36;;;;;;;11.60;10.50;;;18.10;23.20;;;;;;6192990;23;20426;-80
2023/10/12 05:35:05;;;;;;;12.27;11.40;;;18.10;23.10;;;;;;6192660;23;20407;-79
2023/10/12 05:37:38;;;;;;;12.97;12.03;;;18.10;23.00;;;;;;6192532;23;20391;-78
2023/10/12 05:40:10;;;;;;;11.70;10.90;;;18.20;23.20;;;;;;6216605;23;20356;-79
2023/10/12 05:42:39;;;;;;;13.07;11.90;;;18.10;23.10;;;;;;6218655;23;21083;-80
2023/10/12 05:45:31;;;;;;;12.17;11.27;;;18.10;23.20;;;;;;6218727;23;20403;-79
2023/10/12 05:47:56;;;;;;;12.00;10.90;;;18.10;23.20;;;;;;6191275;23;20386;-78
2023/10/12 05:50:26;;;;;;;11.30;10.50;;;18.10;23.10;;;;;;6189603;23;20829;-78
2023/10/12 05:52:53;;;;;;;10.83;10.13;;;18.10;23.00;;;;;;6216808;23;20176;-79
2023/10/12 05:55:22;;;;;;;12.83;11.63;;;18.10;23.00;;;;;;6187692;23;20395;-77
2023/10/12 05:57:48;;;;;;;12.30;11.30;;;18.10;23.10;;;;;;6187499;23;20380;-78
2023/10/12 06:00:35;;;;;;;11.97;10.83;;;18.10;23.10;;;;;;6213481;23;20450;-78
2023/10/12 06:03:01;;;;;;;11.70;10.60;;;18.10;23.10;;;;;;6185493;23;20207;-77
2023/10/12 06:05:27;;;;;;;13.97;12.87;;;18.10;23.30;;;;;;6211991;23;20462;-78
2023/10/12 06:08:00;;;;;;;11.37;10.43;;;18.10;23.30;;;;;;6185695;23;20386;-77
2023/10/12 06:10:27;;;;;;;16.47;12.20;;;18.10;23.50;;;;;;6184266;23;20394;-78
2023/10/12 06:12:53;;;;;;;12.43;11.33;;;18.10;23.50;;;;;;6186983;23;20422;-78
2023/10/12 06:15:23;;;;;;;11.40;10.60;;;18.20;23.50;;;;;;6213956;23;20710;-78
2023/10/12 06:17:51;;;;;;;11.90;10.77;;;18.20;23.50;;;;;;6215230;23;20391;-77
2023/10/12 06:20:36;;;;;;;12.47;11.47;;;18.20;23.50;;;;;;6214625;23;20371;-77
2023/10/12 06:23:08;;;;;;;11.33;10.60;;;18.20;23.40;;;;;;6215004;23;20402;-77
2023/10/12 06:25:37;;;;;;;12.30;10.70;;;18.20;23.40;;;;;;6216821;23;20374;-79
2023/10/12 06:28:14;;;;;;;12.27;11.20;;;18.30;23.50;;;;;;6188438;23;20383;-78
2023/10/12 06:30:50;;;;;;;12.90;11.80;;;18.30;23.60;;;;;;6188427;23;20367;-78
2023/10/12 06:33:17;;;;;;;12.60;11.40;;;18.30;23.50;;;;;;6214308;23;20394;-78
2023/10/12 06:36:00;;;;;;;12.80;11.87;;;18.30;23.50;;;;;;6187771;23;20387;-78
2023/10/12 06:38:47;;;;;;;14.17;12.73;;;18.40;23.60;;;;;;6188895;23;20440;-77
2023/10/12 06:41:58;;;;;;;13.90;12.70;;;18.40;23.50;;;;;;6215572;23;20356;-77
2023/10/12 06:46:49;;;;;;;13.27;12.00;;;18.50;23.50;;;;;;6229302;23;20379;-78
2023/10/12 06:49:23;;;;;;;12.47;11.27;;;18.50;23.30;;;;;;6193276;23;20893;-78
2023/10/12 06:52:03;;;;;;;12.17;10.93;;;18.50;23.10;;;;;;6219202;23;20892;-78
2023/10/12 06:54:39;;;;;;;12.33;11.20;;;18.60;23.00;;;;;;6192250;23;20406;-78
2023/10/12 07:02:28;;;;;;;12.10;10.47;;;18.70;20.90;;;;;;6228313;23;20466;-76
2023/10/12 07:04:54;;;;;;;11.70;10.67;;;19.00;19.70;;;;;;6213531;23;20406;-76
2023/10/12 07:07:28;;;;;;;10.77;10.03;;;19.20;19.20;;;;;;6216924;23;20429;-77
2023/10/12 07:10:13;;;;;;;10.93;10.33;;;19.30;18.70;;;;;;6214216;23;20372;-77
2023/10/12 07:12:52;;;;;;;11.00;10.20;;;19.40;18.60;;;;;;6189135;23;20529;-77
2023/10/12 07:15:21;;;;;;;11.93;10.97;;;19.50;18.70;;;;;;6215104;23;20865;-77
2023/10/12 07:17:51;;;;;;;11.80;10.90;;;19.60;18.10;;;;;;6189755;23;20745;-77
2023/10/12 07:21:05;;;;;;;12.03;10.40;;;19.70;18.60;;;;;;6189071;23;20413;-77
2023/10/12 07:23:14;;;;;;;11.67;10.77;;;19.80;17.80;;;;;;6206352;23;20399;-79
2023/10/12 07:25:49;;;;;;;11.73;10.93;;;19.90;17.30;;;;;;6219864;23;20487;-78
2023/10/12 07:28:18;;;;;;;12.33;11.23;;;19.90;16.90;;;;;;6194523;23;20397;-78
2023/10/12 07:31:02;;;;;;;11.63;10.73;;;20.00;16.90;;;;;;6219524;23;20861;-78
2023/10/12 07:33:29;;;;;;;10.57;9.67;;;20.10;16.70;;;;;;6217646;23;20727;-79
2023/10/12 07:35:56;;;;;;;11.87;10.80;;;20.10;16.70;;;;;;6218621;23;20755;-78
2023/10/12 07:38:34;;;;;;;19.53;10.50;;;20.10;16.60;;;;;;6218707;23;20430;-78
2023/10/12 07:41:01;;;;;;;10.47;9.77;;;20.10;16.30;;;;;;6192694;23;20376;-79
2023/10/12 07:43:31;;;;;;;10.27;9.40;;;20.10;16.30;;;;;;6218487;23;20398;-78
2023/10/12 07:46:09;;;;;;;14.93;10.00;;;20.10;16.30;;;;;;6218554;23;20351;-78
2023/10/12 07:48:42;;;;;;;10.83;9.93;;;20.20;16.50;;;;;;6219611;23;20359;-78
2023/10/12 07:53:51;;;;;;;10.80;9.90;;;20.10;16.60;;;;;;6225252;23;20466;-78
2023/10/12 07:56:17;;;;;;;12.40;11.20;;;20.10;17.50;;;;;;6218888;23;20454;-78
2023/10/12 07:58:51;;;;;;;12.13;10.97;;;20.10;17.20;;;;;;6218419;23;20364;-78
2023/10/12 08:03:51;;;;;;;11.40;10.53;;;20.00;17.80;;;;;;6227538;23;20456;-78
2023/10/12 08:06:19;;;;;;;11.57;10.60;;;20.00;16.80;;;;;;6192545;23;20414;-77
2023/10/12 08:08:45;;;;;;;11.40;10.50;;;20.00;17.40;;;;;;6216674;23;20379;-79
2023/10/12 08:11:27;;;;;;;9.87;9.27;;;19.90;17.40;;;;;;6218006;23;20421;-80
2023/10/12 08:13:55;;;;;;;10.90;9.73;;;19.90;17.60;;;;;;6190986;23;20172;-79
2023/10/12 08:16:28;;;;;;;11.50;10.60;;;19.90;17.50;;;;;;6190741;23;20383;-80
2023/10/12 08:21:38;;;;;;;10.93;9.87;;;19.80;16.90;;;;;;6218318;23;20390;-81
2023/10/12 08:32:03;;;;;;;11.27;10.30;;;20.00;16.10;;;;;;6228985;23;20164;-79
2023/10/12 08:37:17;;;;;;;11.43;10.53;;;20.00;16.10;;;;;;6229026;23;20374;-79
2023/10/12 08:45:09;;;;;;;11.27;10.27;;;20.00;16.20;;;;;;6219039;23;20399;-79
2023/10/12 08:50:47;;;;;;;11.13;10.43;;;20.00;16.10;;;;;;6219003;23;20495;-79
2023/10/12 08:52:59;;;;;;;11.47;10.33;;;20.00;16.20;;;;;;6219054;23;20442;-79
2023/10/12 08:55:31;;;;;;;10.70;10.00;;;20.00;16.10;;;;;;6219134;23;20371;-79
2023/10/12 08:58:20;;;;;;;13.00;11.77;;;20.00;16.20;;;;;;6193832;23;20407;-78
2023/10/12 09:03:37;;;;;;;12.00;10.80;;;20.00;16.20;;;;;;6227070;23;20469;-79
2023/10/12 09:08:56;;;;;;;10.93;9.70;;;20.00;16.30;;;;;;6191437;23;20643;-81
2023/10/12 09:11:33;;;;;;;11.90;10.70;;;20.00;16.50;;;;;;6193017;23;20501;-80
2023/10/12 09:14:00;;;;;;;11.03;10.13;;;20.00;16.30;;;;;;6191443;23;20399;-80
2023/10/12 09:16:27;;;;;;;11.30;10.27;;;20.00;16.30;;;;;;6193390;23;20390;-80
2023/10/12 09:19:00;;;;;;;12.40;11.40;;;20.00;16.30;;;;;;6217847;23;20419;-79
2023/10/12 09:21:38;;;;;;;12.80;11.53;;;20.00;16.30;;;;;;6193592;23;20923;-79
2023/10/12 09:24:14;;;;;;;12.97;11.97;;;20.00;16.40;;;;;;6196841;23;20407;-78
2023/10/12 09:26:55;;;;;;;12.73;11.63;;;20.00;16.40;;;;;;6223587;23;20360;-80
2023/10/12 09:29:23;;;;;;;11.50;10.67;;;20.00;16.50;;;;;;6196592;23;20861;-79
2023/10/12 09:32:12;;;;;;;12.60;11.63;;;20.00;16.70;;;;;;6217395;23;20414;-80
2023/10/12 09:34:42;;;;;;;11.47;10.60;;;20.00;16.90;;;;;;6192260;23;20714;-79
2023/10/12 09:37:16;;;;;;;12.97;11.87;;;20.00;16.50;;;;;;6192323;23;20372;-79
2023/10/12 09:39:42;;;;;;;11.87;10.80;;;20.00;16.60;;;;;;6191900;23;20505;-78
2023/10/12 09:42:19;;;;;;;11.13;10.43;;;20.10;16.50;;;;;;6218846;23;20431;-79
2023/10/12 09:44:50;;;;;;;11.23;10.03;;;20.20;16.60;;;;;;6191798;23;20406;-78
2023/10/12 09:47:23;;;;;;;10.60;9.90;;;20.10;16.70;;;;;;6191137;23;20451;-77
2023/10/12 09:49:55;;;;;;;12.13;10.77;;;20.10;16.40;;;;;;6221512;23;20422;-78
2023/10/12 09:52:24;;;;;;;12.60;11.43;;;20.20;16.50;;;;;;6222838;23;20407;-79
2023/10/12 09:55:00;;;;;;;10.97;10.17;;;20.20;16.50;;;;;;6193866;23;20463;-79
2023/10/12 09:57:27;;;;;;;10.83;10.03;;;20.20;16.50;;;;;;6194824;23;20705;-80
2023/10/12 09:59:59;;;;;;;10.73;9.83;;;20.20;17.10;;;;;;6224454;23;20410;-78
2023/10/12 10:02:27;;;;;;;11.73;10.73;;;20.30;16.70;;;;;;6196292;23;20521;-78
2023/10/12 10:05:01;;;;;;;15.70;10.80;;;20.30;16.60;;;;;;6191388;23;20407;-78
2023/10/12 10:07:32;;;;;;;11.17;10.37;;;20.30;16.70;;;;;;6220846;23;20362;-79
2023/10/12 10:10:01;;;;;;;11.00;10.00;;;20.30;17.10;;;;;;6190152;23;20478;-78
2023/10/12 10:12:27;;;;;;;12.13;11.33;;;20.30;17.30;;;;;;6217281;23;20892;-78
2023/10/12 10:14:57;;;;;;;10.97;10.17;;;20.30;16.80;;;;;;6217056;23;20438;-78
2023/10/12 10:17:24;;;;;;;11.80;10.83;;;20.30;17.20;;;;;;6190832;23;20379;-78
2023/10/12 10:20:19;;;;;;;14.47;10.77;;;20.30;16.90;;;;;;6217946;23;20410;-79
2023/10/12 10:22:56;;;;;;;12.00;11.10;;;20.40;16.80;;;;;;6220085;23;20492;-79
2023/10/12 10:25:27;;;;;;;11.63;10.73;;;20.40;17.00;;;;;;6193184;23;20382;-79
2023/10/12 10:27:56;;;;;;;11.23;10.47;;;20.40;16.70;;;;;;6219529;23;20351;-79
2023/10/12 10:30:28;;;;;;;11.40;10.50;;;20.50;16.90;;;;;;6219825;23;20375;-78
2023/10/12 10:33:17;;;;;;;11.20;10.10;;;20.50;17.10;;;;;;6220023;23;20407;-78
2023/10/12 10:41:47;;;;;;;13.20;10.43;;;20.50;17.10;;;;;;6233287;23;20370;-78
2023/10/12 10:44:15;;;;;;;12.33;11.13;;;20.50;17.50;;;;;;6220234;23;20395;-78
2023/10/12 10:46:44;;;;;;;11.60;10.70;;;20.50;17.20;;;;;;6191611;23;20450;-79
2023/10/12 10:49:16;;;;;;;12.47;11.37;;;20.50;17.10;;;;;;6192485;23;20415;-79
2023/10/12 10:54:39;;;;;;;12.10;11.20;;;20.60;18.10;;;;;;6222297;23;20742;-79
2023/10/12 10:57:15;;;;;;;12.60;11.53;;;20.50;18.10;;;;;;6218995;23;20723;-79
2023/10/12 10:59:45;;;;;;;11.40;10.50;;;20.50;18.40;;;;;;6192996;23;20833;-79
2023/10/12 11:02:14;;;;;;;11.60;10.80;;;20.50;18.50;;;;;;6220132;23;20375;-78
2023/10/12 11:07:11;;;;;;;13.17;11.87;;;20.50;18.20;;;;;;6220324;23;20407;-81
2023/10/12 11:10:05;;;;;;;11.60;10.67;;;20.60;18.50;;;;;;6218568;23;20577;-77
2023/10/12 11:12:32;;;;;;;11.30;10.43;;;20.60;18.50;;;;;;6214432;23;20484;-76
2023/10/12 11:15:00;;;;;;;11.30;10.40;;;20.60;18.20;;;;;;6216143;23;20453;-76
2023/10/12 11:17:40;;;;;;;12.33;11.27;;;20.70;18.30;;;;;;6215584;23;20374;-76
2023/10/12 11:20:34;;;;;;;11.33;10.40;;;20.80;18.00;;;;;;6188133;23;20379;-76
2023/10/12 11:23:02;;;;;;;12.10;11.20;;;20.80;18.60;;;;;;6201093;23;20419;-76
2023/10/12 11:25:27;;;;;;;12.40;11.60;;;20.80;17.90;;;;;;6214274;23;20458;-77
2023/10/12 11:27:53;;;;;;;12.83;11.80;;;20.90;17.70;;;;;;6215559;23;20388;-76
2023/10/12 11:30:35;;;;;;;11.97;11.00;;;21.00;18.10;;;;;;6214503;23;20170;-76
2023/10/12 11:33:01;;;;;;;11.10;10.30;;;21.00;18.30;;;;;;6214062;23;20251;-77
2023/10/12 11:35:40;;;;;;;11.87;11.07;;;21.00;18.20;;;;;;6213766;23;20968;-76
2023/10/12 11:38:20;;;;;;;12.13;11.10;;;21.00;18.20;;;;;;6214522;23;20175;-76
2023/10/12 11:40:52;;;;;;;11.13;10.13;;;21.00;18.20;;;;;;6213487;23;20371;-75
2023/10/12 11:43:19;;;;;;;11.97;10.97;;;21.00;18.10;;;;;;6213118;23;20876;-76
2023/10/12 11:46:14;;;;;;;12.40;11.60;;;21.10;18.10;;;;;;6187565;23;20383;-77
2023/10/12 11:48:40;;;;;;;11.80;10.90;;;21.10;18.10;;;;;;6188590;23;20398;-77
2023/10/12 11:51:13;;;;;;;12.50;11.50;;;21.10;18.20;;;;;;6218544;23;20367;-78
2023/10/12 11:53:39;;;;;;;11.70;10.80;;;21.10;18.10;;;;;;6223520;23;20433;-78
2023/10/12 11:56:17;;;;;;;12.33;11.13;;;21.20;18.30;;;;;;6220246;23;20370;-79
2023/10/12 11:58:48;;;;;;;12.13;11.13;;;21.10;18.10;;;;;;6194419;23;20475;-80
2023/10/12 12:01:14;;;;;;;12.27;11.20;;;21.10;18.10;;;;;;6219529;23;20447;-78
2023/10/12 12:03:39;;;;;;;12.03;11.20;;;21.10;18.20;;;;;;6218237;23;20399;-79
2023/10/12 12:06:18;;;;;;;11.80;10.90;;;21.20;18.10;;;;;;6195116;23;20156;-78
2023/10/12 12:08:45;;;;;;;11.90;11.00;;;21.30;17.80;;;;;;6223399;23;20600;-79
2023/10/12 12:11:13;;;;;;;15.63;11.20;;;21.30;17.80;;;;;;6197022;23;20803;-78
2023/10/12 12:13:42;;;;;;;12.60;11.37;;;21.30;17.90;;;;;;6198029;23;20748;-78
2023/10/12 12:16:08;;;;;;;12.87;11.27;;;21.30;18.30;;;;;;6226164;23;20466;-79
2023/10/12 12:18:34;;;;;;;13.23;12.10;;;21.30;18.50;;;;;;6223783;23;20395;-78
2023/10/12 12:21:02;;;;;;;11.70;10.80;;;21.30;18.80;;;;;;6222847;23;20887;-78
2023/10/12 12:23:33;;;;;;;14.27;11.73;;;21.20;19.00;;;;;;6220449;23;20175;-76
2023/10/12 12:26:09;;;;;;;11.87;10.20;;;21.20;19.10;;;;;;6221276;23;20378;-79
2023/10/12 12:28:43;;;;;;;11.53;10.63;;;21.20;19.20;;;;;;6220817;23;20374;-78
2023/10/12 12:31:20;;;;;;;12.43;11.10;;;21.00;19.40;;;;;;6220593;23;20363;-77
2023/10/12 12:33:46;;;;;;;13.20;12.00;;;21.00;19.50;;;;;;6220983;23;20398;-77
2023/10/12 12:36:13;;;;;;;13.37;12.07;;;21.00;19.70;;;;;;6196768;23;20379;-78
2023/10/12 12:41:23;;;;;;;15.90;13.10;;;21.00;19.90;;;;;;6230664;23;20391;-79
2023/10/12 12:43:50;;;;;;;12.80;11.70;;;20.90;20.00;;;;;;6203108;23;20473;-79
2023/10/12 12:46:17;;;;;;;14.73;13.33;;;20.90;20.20;;;;;;6226293;23;20371;-79
2023/10/12 12:48:46;;;;;;;13.13;12.03;;;20.90;20.60;;;;;;6200759;23;20379;-78
2023/10/12 12:51:15;;;;;;;12.97;11.70;;;20.80;20.40;;;;;;6199467;23;20407;-79
2023/10/12 12:53:46;;;;;;;18.23;13.90;;;20.80;20.50;;;;;;6225168;23;20901;-79
2023/10/12 12:56:14;;;;;;;12.50;11.60;;;20.80;20.60;;;;;;6195385;23;20762;-79
2023/10/12 12:58:46;;;;;;;12.90;12.00;;;20.80;20.70;;;;;;6202671;23;20397;-81
2023/10/12 13:01:12;;;;;;;12.47;11.47;;;20.80;20.80;;;;;;6204728;23;20367;-79
2023/10/12 13:03:38;;;;;;;11.27;10.57;;;20.80;21.30;;;;;;6230484;23;20415;-78
2023/10/12 13:06:07;;;;;;;19.00;12.27;;;20.80;21.60;;;;;;6227697;23;20382;-79
2023/10/12 13:08:36;;;;;;;13.77;11.20;;;20.80;21.40;;;;;;6223178;23;20176;-78
2023/10/12 13:11:04;;;;;;;18.87;11.90;;;20.70;21.40;;;;;;6226432;23;20371;-78
2023/10/12 13:13:33;;;;;;;16.10;11.87;;;20.70;22.00;;;;;;6226318;23;20426;-79
2023/10/12 13:16:05;;;;;;;11.67;10.73;;;20.70;22.20;;;;;;6223326;23;20848;-79
2023/10/12 13:18:32;;;;;;;13.67;12.20;;;20.70;22.20;;;;;;6220984;23;20413;-79
2023/10/12 13:20:59;;;;;;;12.93;11.97;;;20.70;22.20;;;;;;6197497;23;20832;-80
2023/10/12 13:23:25;;;;;;;12.90;11.60;;;20.70;21.60;;;;;;6225103;23;20388;-79
2023/10/12 13:25:50;;;;;;;13.67;12.17;;;20.70;21.50;;;;;;6225401;23;20367;-78
2023/10/12 13:28:16;;;;;;;13.30;12.37;;;20.70;21.80;;;;;;6225987;23;20379;-78
2023/10/12 13:30:50;;;;;;;14.30;13.10;;;20.70;21.20;;;;;;6198075;23;20156;-79
2023/10/12 13:33:16;;;;;;;14.27;12.90;;;20.70;21.20;;;;;;6198842;23;20214;-80
2023/10/12 13:35:43;;;;;;;13.80;12.53;;;20.70;21.20;;;;;;6201415;23;20415;-79
2023/10/12 13:38:10;;;;;;;15.50;11.90;;;20.80;21.20;;;;;;6200078;23;20390;-78
2023/10/12 13:40:37;;;;;;;13.47;12.10;;;20.80;20.90;;;;;;6224274;23;20410;-79
2023/10/12 13:43:18;;;;;;;13.53;12.23;;;20.80;21.10;;;;;;6197750;23;20404;-80
2023/10/12 13:45:47;;;;;;;12.77;11.57;;;20.80;21.50;;;;;;6224338;23;20371;-80
2023/10/12 13:48:18;;;;;;;12.63;11.73;;;20.80;20.90;;;;;;6194667;23;20387;-79
2023/10/12 13:50:50;;;;;;;13.83;12.63;;;20.80;21.30;;;;;;6196361;23;20414;-78
2023/10/12 13:53:15;;;;;;;15.50;12.30;;;20.80;20.90;;;;;;6220862;23;20434;-77
2023/10/12 13:55:45;;;;;;;12.70;11.70;;;20.90;20.60;;;;;;6222226;23;20371;-79
2023/10/12 13:58:11;;;;;;;16.77;12.83;;;20.90;20.70;;;;;;6193938;23;20370;-79
2023/10/12 14:00:37;;;;;;;15.63;14.33;;;20.80;20.50;;;;;;6220570;23;20383;-79
2023/10/12 14:03:10;;;;;;;13.40;12.40;;;20.90;20.80;;;;;;6192717;23;20187;-80
2023/10/12 14:05:40;;;;;;;14.30;12.97;;;20.90;21.10;;;;;;6193300;23;20402;-80
2023/10/12 14:08:08;;;;;;;14.03;12.63;;;20.90;21.30;;;;;;6193890;23;20391;-80
2023/10/12 14:10:39;;;;;;;13.23;11.80;;;20.90;21.30;;;;;;6220306;23;20375;-80
2023/10/12 14:13:04;;;;;;;17.20;13.40;;;20.80;21.40;;;;;;6220890;23;20430;-79
2023/10/12 14:15:30;;;;;;;14.10;12.77;;;20.90;21.60;;;;;;6220650;23;20371;-79
2023/10/12 14:17:56;;;;;;;13.47;12.30;;;20.80;21.40;;;;;;6192446;23;20217;-80
2023/10/12 14:20:28;;;;;;;14.23;13.13;;;20.80;21.10;;;;;;6193227;23;20159;-80
2023/10/12 14:22:57;;;;;;;13.17;12.07;;;20.80;21.60;;;;;;6197350;23;20402;-80
2023/10/12 14:25:28;;;;;;;13.80;12.77;;;20.80;21.60;;;;;;6224875;23;20375;-79
2023/10/12 14:27:55;;;;;;;13.53;12.63;;;20.80;21.20;;;;;;6220545;23;20367;-80
2023/10/12 14:30:28;;;;;;;14.13;12.93;;;20.90;21.00;;;;;;6193064;23;20419;-78
2023/10/12 14:32:54;;;;;;;12.50;11.60;;;20.90;21.00;;;;;;6220234;23;20407;-80
2023/10/12 14:35:20;;;;;;;13.60;12.57;;;20.90;20.60;;;;;;6220225;23;20379;-80